Time;durP1;ratioP1;P1;durP2;ratioP2;P2;SDS_P1;SDS_P2;PMS_P1;PMS_P2;Temp;Humidity;BMP_temperature;BMP_pressure;BME280_temperature;BME280_humidity;BME280_pressure;Samples;Min_cycle;Max_cycle;Signal;HPM_P1;HPM_P2
2022/07/04 00:00:27;;;;;;;5.53;2.90;;;;;;;;;;6190152;23;20181;-85
2022/07/04 00:02:56;;;;;;;3.00;1.50;;;;;;;;;;6190472;23;20182;-86
2022/07/04 00:05:26;;;;;;;3.20;1.70;;;;;;;;;;6190032;23;20221;-86
2022/07/04 00:07:54;;;;;;;1.93;1.43;;;;;;;;;;6189901;23;20185;-86
2022/07/04 00:10:23;;;;;;;3.43;1.70;;;;;;;;;;6189897;23;20184;-85
2022/07/04 00:12:51;;;;;;;2.60;1.73;;;;;;;;;;6216497;23;20181;-86
2022/07/04 00:15:20;;;;;;;4.30;2.07;;;;;;;;;;6190130;23;20177;-85
2022/07/04 00:17:48;;;;;;;1.50;1.40;;;;;;;;;;6190233;23;20187;-85
2022/07/04 00:20:17;;;;;;;2.23;1.17;;;;;;;;;;6215705;23;20207;-86
2022/07/04 00:22:47;;;;;;;2.57;1.70;;;;;;;;;;6190058;23;20205;-86
2022/07/04 00:25:15;;;;;;;3.23;1.90;;;;;;;;;;6190338;23;20191;-85
2022/07/04 00:27:44;;;;;;;2.97;1.10;;;;;;;;;;6190435;23;20214;-85
2022/07/04 00:30:12;;;;;;;1.63;1.50;;;;;;;;;;6190305;23;20229;-86
2022/07/04 00:32:41;;;;;;;4.67;1.63;;;;;;;;;;6190124;23;20265;-85
2022/07/04 00:35:10;;;;;;;2.60;1.77;;;;;;;;;;6189692;23;20194;-85
2022/07/04 00:37:38;;;;;;;4.67;2.40;;;;;;;;;;6189735;23;20202;-85
2022/07/04 00:40:09;;;;;;;7.63;2.40;;;;;;;;;;6216254;23;20198;-85
2022/07/04 00:42:37;;;;;;;3.53;1.67;;;;;;;;;;6216223;23;20182;-86
2022/07/04 00:45:06;;;;;;;4.83;1.77;;;;;;;;;;6189938;23;20201;-85
2022/07/04 00:47:35;;;;;;;5.33;2.07;;;;;;;;;;6216712;23;20166;-86
2022/07/04 00:50:03;;;;;;;5.40;2.67;;;;;;;;;;6190177;23;20261;-86
2022/07/04 00:52:32;;;;;;;2.40;2.13;;;;;;;;;;6190630;23;20181;-86
2022/07/04 00:55:01;;;;;;;7.30;2.73;;;;;;;;;;6189784;23;20184;-85
2022/07/04 00:57:30;;;;;;;5.70;2.07;;;;;;;;;;6190399;23;20269;-86
2022/07/04 00:59:59;;;;;;;4.23;1.90;;;;;;;;;;6189339;23;20171;-86
2022/07/04 01:02:27;;;;;;;4.20;2.43;;;;;;;;;;6190635;23;20181;-85
2022/07/04 01:04:56;;;;;;;5.97;2.20;;;;;;;;;;6191722;23;20276;-85
2022/07/04 01:07:24;;;;;;;6.63;2.80;;;;;;;;;;6192024;23;20187;-85
2022/07/04 01:09:54;;;;;;;5.23;1.87;;;;;;;;;;6192300;23;20209;-85
2022/07/04 01:12:33;;;;;;;4.63;2.20;;;;;;;;;;6192035;23;20174;-86
2022/07/04 01:15:01;;;;;;;5.13;2.33;;;;;;;;;;6217473;23;20170;-85
2022/07/04 01:17:30;;;;;;;3.97;2.77;;;;;;;;;;6191937;23;20185;-86
2022/07/04 01:19:58;;;;;;;4.40;2.43;;;;;;;;;;6217572;23;20293;-86
2022/07/04 01:22:28;;;;;;;6.40;2.83;;;;;;;;;;6191548;23;20182;-86
2022/07/04 01:25:00;;;;;;;7.97;2.30;;;;;;;;;;6191575;23;20192;-86
2022/07/04 01:27:29;;;;;;;3.63;2.03;;;;;;;;;;6191901;23;20202;-85
2022/07/04 01:29:57;;;;;;;2.83;2.07;;;;;;;;;;6191526;23;20204;-85
2022/07/04 01:32:26;;;;;;;4.30;2.23;;;;;;;;;;6191272;23;20181;-85
2022/07/04 01:34:55;;;;;;;5.57;2.13;;;;;;;;;;6190892;23;20182;-86
2022/07/04 01:37:23;;;;;;;7.63;2.70;;;;;;;;;;6191622;23;20166;-85
2022/07/04 01:39:53;;;;;;;7.67;1.93;;;;;;;;;;6191652;23;20178;-85
2022/07/04 01:42:21;;;;;;;5.87;1.80;;;;;;;;;;6191278;23;20213;-85
2022/07/04 01:44:50;;;;;;;5.33;2.10;;;;;;;;;;6191110;23;20186;-85
2022/07/04 01:47:18;;;;;;;3.67;2.03;;;;;;;;;;6190839;23;20277;-85
2022/07/04 01:49:47;;;;;;;4.20;2.17;;;;;;;;;;6191378;23;20178;-85
2022/07/04 01:52:15;;;;;;;1.47;1.37;;;;;;;;;;6191092;23;20185;-85
2022/07/04 01:54:44;;;;;;;3.03;1.90;;;;;;;;;;6191426;23;20178;-85
2022/07/04 01:57:14;;;;;;;2.50;1.17;;;;;;;;;;6191349;23;20180;-85
2022/07/04 02:02:28;;;;;;;2.77;2.20;;;;;;;;;;6191487;23;20242;-85
2022/07/04 02:04:57;;;;;;;7.57;1.50;;;;;;;;;;6191050;23;20182;-85
2022/07/04 02:07:25;;;;;;;0.47;0.47;;;;;;;;;;6191168;23;20198;-86
2022/07/04 02:09:54;;;;;;;2.00;0.80;;;;;;;;;;6191009;23;20178;-86
2022/07/04 02:15:10;;;;;;;0.30;0.30;;;;;;;;;;6217348;23;20243;-85
2022/07/04 02:17:38;;;;;;;0.40;0.40;;;;;;;;;;6191273;23;20228;-85
2022/07/04 02:20:11;;;;;;;0.40;0.40;;;;;;;;;;6116877;23;20229;-85
2022/07/04 02:22:39;;;;;;;0.40;0.40;;;;;;;;;;6061541;23;20205;-86
2022/07/04 02:25:08;;;;;;;0.47;0.47;;;;;;;;;;6063844;23;20171;-85
2022/07/04 02:27:38;;;;;;;0.30;0.30;;;;;;;;;;6062249;23;20197;-85
2022/07/04 02:30:07;;;;;;;3.40;1.70;;;;;;;;;;6062453;23;20189;-85
2022/07/04 02:32:36;;;;;;;4.40;1.60;;;;;;;;;;6062709;23;20245;-85
2022/07/04 02:35:05;;;;;;;4.03;1.83;;;;;;;;;;6062694;23;20185;-86
2022/07/04 02:37:33;;;;;;;1.30;1.20;;;;;;;;;;6062532;23;20177;-86
2022/07/04 02:40:02;;;;;;;0.33;0.33;;;;;;;;;;6062923;23;20174;-85
2022/07/04 02:42:30;;;;;;;0.50;0.50;;;;;;;;;;6061925;23;20202;-85
2022/07/04 02:45:01;;;;;;;0.50;0.50;;;;;;;;;;6062637;23;20265;-85
2022/07/04 02:47:29;;;;;;;0.77;0.77;;;;;;;;;;6061986;23;20197;-85
2022/07/04 02:49:58;;;;;;;0.70;0.70;;;;;;;;;;6063719;23;20268;-85
2022/07/04 02:52:26;;;;;;;0.40;0.40;;;;;;;;;;6062813;23;20182;-86
2022/07/04 02:54:55;;;;;;;0.30;0.30;;;;;;;;;;6062919;23;20181;-85
2022/07/04 02:57:23;;;;;;;3.00;2.47;;;;;;;;;;6062380;23;20174;-85
2022/07/04 02:59:52;;;;;;;2.27;1.93;;;;;;;;;;6062176;23;20269;-86
2022/07/04 03:02:21;;;;;;;2.00;0.97;;;;;;;;;;6062629;23;20188;-85
2022/07/04 03:04:50;;;;;;;0.50;0.50;;;;;;;;;;6063444;23;20205;-85
2022/07/04 03:07:18;;;;;;;0.80;0.80;;;;;;;;;;6062321;23;20285;-85
2022/07/04 03:09:47;;;;;;;0.87;0.87;;;;;;;;;;6061902;23;20244;-85
2022/07/04 03:12:15;;;;;;;0.40;0.40;;;;;;;;;;6062120;23;20205;-85
2022/07/04 03:14:44;;;;;;;0.60;0.60;;;;;;;;;;6062424;23;20236;-85
2022/07/04 03:17:13;;;;;;;2.90;2.20;;;;;;;;;;6063978;23;20174;-85
2022/07/04 03:19:43;;;;;;;0.30;0.30;;;;;;;;;;6074999;23;1082941;-85
2022/07/04 03:22:11;;;;;;;0.77;0.50;;;;;;;;;;6190360;23;20179;-85
2022/07/04 03:24:40;;;;;;;1.53;1.43;;;;;;;;;;6189576;23;20175;-85
2022/07/04 03:27:08;;;;;;;1.47;1.37;;;;;;;;;;6190219;23;20220;-85
2022/07/04 03:29:36;;;;;;;0.30;0.30;;;;;;;;;;6190545;23;20188;-86
2022/07/04 03:32:05;;;;;;;0.40;0.40;;;;;;;;;;6190735;23;20203;-86
2022/07/04 03:34:34;;;;;;;0.30;0.30;;;;;;;;;;6216903;23;20220;-86
2022/07/04 03:37:04;;;;;;;1.40;1.30;;;;;;;;;;6190401;23;20170;-86
2022/07/04 03:39:33;;;;;;;0.30;0.30;;;;;;;;;;6190408;23;20179;-86
2022/07/04 03:42:02;;;;;;;0.30;0.30;;;;;;;;;;6190549;23;20262;-86
2022/07/04 03:44:30;;;;;;;0.30;0.30;;;;;;;;;;6190666;23;20203;-86
2022/07/04 03:46:59;;;;;;;0.30;0.30;;;;;;;;;;6190042;23;20190;-86
2022/07/04 03:49:27;;;;;;;0.30;0.30;;;;;;;;;;6190399;23;20176;-86
2022/07/04 03:51:56;;;;;;;1.33;1.23;;;;;;;;;;6190282;23;20187;-86
2022/07/04 03:54:28;;;;;;;0.30;0.30;;;;;;;;;;6190283;23;20175;-86
2022/07/04 03:56:56;;;;;;;0.60;0.60;;;;;;;;;;6216211;23;20187;-86
2022/07/04 03:59:25;;;;;;;2.07;0.40;;;;;;;;;;6189903;23;20170;-86
2022/07/04 04:01:54;;;;;;;0.30;0.30;;;;;;;;;;6190131;23;20182;-86
2022/07/04 04:07:08;;;;;;;0.80;0.80;;;;;;;;;;6190259;23;20194;-86
2022/07/04 04:09:38;;;;;;;0.30;0.30;;;;;;;;;;6190261;23;20178;-86
2022/07/04 04:12:07;;;;;;;0.30;0.30;;;;;;;;;;6190570;23;20186;-86
2022/07/04 04:14:36;;;;;;;0.30;0.30;;;;;;;;;;6190074;23;20228;-86
2022/07/04 04:17:05;;;;;;;2.43;0.70;;;;;;;;;;6190534;23;20181;-86
2022/07/04 04:19:33;;;;;;;0.30;0.30;;;;;;;;;;6145306;23;20284;-86
2022/07/04 04:22:02;;;;;;;0.30;0.30;;;;;;;;;;6063642;23;20212;-86
2022/07/04 04:24:31;;;;;;;0.40;0.40;;;;;;;;;;6063896;23;20234;-86
2022/07/04 04:27:01;;;;;;;1.17;1.17;;;;;;;;;;6063229;23;20197;-86
2022/07/04 04:29:29;;;;;;;0.97;0.87;;;;;;;;;;6063658;23;20178;-86
2022/07/04 04:31:58;;;;;;;0.40;0.40;;;;;;;;;;6064755;23;20178;-86
2022/07/04 04:34:26;;;;;;;1.50;1.17;;;;;;;;;;6063524;23;20182;-86
2022/07/04 04:36:55;;;;;;;1.00;1.00;;;;;;;;;;6064786;23;20178;-86
2022/07/04 04:39:23;;;;;;;2.90;0.80;;;;;;;;;;6065036;23;20182;-86
2022/07/04 04:41:53;;;;;;;1.80;1.23;;;;;;;;;;6065134;23;20186;-86
2022/07/04 04:44:23;;;;;;;0.30;0.30;;;;;;;;;;6066268;23;20179;-86
2022/07/04 04:46:52;;;;;;;0.30;0.30;;;;;;;;;;6065739;23;20231;-85
2022/07/04 04:49:20;;;;;;;0.30;0.30;;;;;;;;;;6065087;23;20182;-85
2022/07/04 04:51:49;;;;;;;2.93;1.00;;;;;;;;;;6065032;23;20192;-86
2022/07/04 04:54:17;;;;;;;0.63;0.63;;;;;;;;;;6064974;23;20186;-86
2022/07/04 04:56:46;;;;;;;0.40;0.40;;;;;;;;;;6064889;23;20178;-86
2022/07/04 04:59:14;;;;;;;0.93;0.93;;;;;;;;;;6064838;23;20257;-86
2022/07/04 05:01:44;;;;;;;1.13;0.60;;;;;;;;;;6065085;23;20213;-86
2022/07/04 05:04:14;;;;;;;0.30;0.30;;;;;;;;;;6064443;23;20183;-86
2022/07/04 05:06:43;;;;;;;0.80;0.80;;;;;;;;;;6064376;23;20230;-86
2022/07/04 05:09:12;;;;;;;0.67;0.67;;;;;;;;;;6064480;23;20197;-86
2022/07/04 05:11:40;;;;;;;0.47;0.47;;;;;;;;;;6064760;23;20179;-86
2022/07/04 05:14:09;;;;;;;1.13;1.07;;;;;;;;;;6064664;23;20209;-86
2022/07/04 05:16:37;;;;;;;1.10;1.10;;;;;;;;;;6064314;23;20185;-86
2022/07/04 05:19:07;;;;;;;0.30;0.30;;;;;;;;;;6069369;23;20197;-86
2022/07/04 05:21:36;;;;;;;1.43;1.33;;;;;;;;;;6192111;23;20226;-86
2022/07/04 05:24:04;;;;;;;0.80;0.73;;;;;;;;;;6191831;23;20178;-86
2022/07/04 05:26:33;;;;;;;2.70;1.60;;;;;;;;;;6191752;23;20200;-86
2022/07/04 05:29:01;;;;;;;0.90;0.90;;;;;;;;;;6191996;23;20222;-86
2022/07/04 05:31:30;;;;;;;0.60;0.50;;;;;;;;;;6218115;23;20166;-85
2022/07/04 05:33:59;;;;;;;0.57;0.57;;;;;;;;;;6191371;23;20268;-86
2022/07/04 05:36:29;;;;;;;0.33;0.33;;;;;;;;;;6191549;23;20272;-86
2022/07/04 05:38:58;;;;;;;0.77;0.77;;;;;;;;;;6192071;23;20200;-86
2022/07/04 05:41:26;;;;;;;3.20;1.57;;;;;;;;;;6217846;23;20189;-86
2022/07/04 05:43:56;;;;;;;0.90;0.90;;;;;;;;;;6218603;23;20169;-86
2022/07/04 05:46:27;;;;;;;2.40;1.87;;;;;;;;;;6191678;23;20176;-83
2022/07/04 05:48:56;;;;;;;0.53;0.53;;;;;;;;;;6191623;23;20191;-85
2022/07/04 05:51:24;;;;;;;0.83;0.83;;;;;;;;;;6218579;23;20255;-86
2022/07/04 05:53:55;;;;;;;2.43;0.93;;;;;;;;;;6192031;23;20249;-86
2022/07/04 05:56:24;;;;;;;0.97;0.90;;;;;;;;;;6218106;23;20186;-85
2022/07/04 05:58:53;;;;;;;1.97;0.73;;;;;;;;;;6191984;23;20177;-86
2022/07/04 06:01:21;;;;;;;2.70;0.80;;;;;;;;;;6191581;23;20181;-86
2022/07/04 06:03:50;;;;;;;0.47;0.47;;;;;;;;;;6191744;23;20176;-86
2022/07/04 06:06:19;;;;;;;3.70;2.00;;;;;;;;;;6218287;23;20174;-86
2022/07/04 06:08:47;;;;;;;1.33;1.23;;;;;;;;;;6191161;23;20189;-86
2022/07/04 06:11:18;;;;;;;5.63;3.37;;;;;;;;;;6191471;23;20177;-85
2022/07/04 06:13:46;;;;;;;2.33;2.13;;;;;;;;;;6191824;23;20181;-85
2022/07/04 06:16:15;;;;;;;1.97;1.87;;;;;;;;;;6217475;23;20253;-85
2022/07/04 06:18:43;;;;;;;2.67;2.47;;;;;;;;;;6191018;23;20242;-86
2022/07/04 06:21:12;;;;;;;7.13;2.10;;;;;;;;;;6217539;23;20199;-85
2022/07/04 06:23:41;;;;;;;0.47;0.47;;;;;;;;;;6191466;23;20173;-85
2022/07/04 06:26:10;;;;;;;2.50;1.60;;;;;;;;;;6193238;23;20181;-84
2022/07/04 06:28:39;;;;;;;0.80;0.80;;;;;;;;;;6197274;23;20224;-85
2022/07/04 06:31:17;;;;;;;3.17;2.10;;;;;;;;;;6197489;23;20176;-86
2022/07/04 06:36:33;;;;;;;1.57;0.60;;;;;;;;;;6194386;23;20185;-85
2022/07/04 06:39:01;;;;;;;0.93;0.93;;;;;;;;;;6193242;23;20172;-86
2022/07/04 06:41:30;;;;;;;0.70;0.70;;;;;;;;;;6193234;23;20174;-86
2022/07/04 06:44:00;;;;;;;1.00;1.00;;;;;;;;;;6193704;23;20190;-86
2022/07/04 06:46:28;;;;;;;1.60;1.33;;;;;;;;;;6194097;23;20184;-85
2022/07/04 06:48:57;;;;;;;0.60;0.60;;;;;;;;;;6193364;23;20189;-85
2022/07/04 06:51:26;;;;;;;2.00;1.43;;;;;;;;;;6195721;23;20220;-86
2022/07/04 06:53:54;;;;;;;0.40;0.40;;;;;;;;;;6219562;23;20184;-85
2022/07/04 06:56:23;;;;;;;1.40;1.30;;;;;;;;;;6193568;23;20265;-85
2022/07/04 06:58:51;;;;;;;1.03;0.93;;;;;;;;;;6196681;23;20256;-85
2022/07/04 07:01:22;;;;;;;1.10;1.07;;;;;;;;;;6196490;23;20228;-85
2022/07/04 07:03:50;;;;;;;0.50;0.50;;;;;;;;;;6197038;23;20266;-85
2022/07/04 07:06:19;;;;;;;2.57;2.00;;;;;;;;;;6223931;23;20206;-86
2022/07/04 07:08:47;;;;;;;2.63;1.40;;;;;;;;;;6197392;23;20201;-85
2022/07/04 07:11:19;;;;;;;2.37;1.37;;;;;;;;;;6223077;23;20200;-85
2022/07/04 07:13:49;;;;;;;1.63;1.33;;;;;;;;;;6196785;23;20192;-85
2022/07/04 07:16:19;;;;;;;4.13;0.80;;;;;;;;;;6197879;23;20208;-86
2022/07/04 07:18:52;;;;;;;0.70;0.70;;;;;;;;;;6196978;23;20204;-85
2022/07/04 07:21:21;;;;;;;1.27;1.10;;;;;;;;;;6078090;23;20217;-86
2022/07/04 07:23:53;;;;;;;1.77;1.40;;;;;;;;;;6073132;23;20248;-85
2022/07/04 07:26:22;;;;;;;1.60;1.50;;;;;;;;;;6076247;23;20181;-86
2022/07/04 07:28:51;;;;;;;1.40;1.30;;;;;;;;;;6077016;23;20206;-85
2022/07/04 07:31:21;;;;;;;3.23;1.10;;;;;;;;;;6076910;23;20191;-85
2022/07/04 07:33:52;;;;;;;1.20;0.73;;;;;;;;;;6077528;23;20192;-85
2022/07/04 07:36:23;;;;;;;1.23;1.00;;;;;;;;;;6077231;23;20185;-85
2022/07/04 07:38:55;;;;;;;0.80;0.80;;;;;;;;;;6074015;23;20212;-85
2022/07/04 07:41:24;;;;;;;1.33;1.27;;;;;;;;;;6079085;23;20169;-85
2022/07/04 07:43:56;;;;;;;2.20;1.00;;;;;;;;;;6077603;23;20203;-85
2022/07/04 07:46:25;;;;;;;1.00;1.00;;;;;;;;;;6083571;23;20246;-85
2022/07/04 07:48:57;;;;;;;2.27;1.10;;;;;;;;;;6078894;23;20204;-85
2022/07/04 07:51:29;;;;;;;1.80;1.70;;;;;;;;;;6076686;23;20173;-84
2022/07/04 07:54:07;;;;;;;1.30;1.20;;;;;;;;;;6060109;23;20185;-84
2022/07/04 07:56:55;;;;;;;0.70;0.70;;;;;;;;;;6063366;23;20182;-84
2022/07/04 07:59:24;;;;;;;1.63;1.53;;;;;;;;;;6063142;23;20203;-82
2022/07/04 08:01:54;;;;;;;2.07;1.20;;;;;;;;;;6061988;23;20269;-85
2022/07/04 08:04:37;;;;;;;0.80;0.80;;;;;;;;;;6067420;23;20183;-84
2022/07/04 08:07:07;;;;;;;1.40;1.30;;;;;;;;;;6071962;23;20514;-84
2022/07/04 08:09:51;;;;;;;0.70;0.70;;;;;;;;;;6069120;23;20222;-85
2022/07/04 08:12:20;;;;;;;1.17;1.07;;;;;;;;;;6067802;23;20223;-82
2022/07/04 08:14:49;;;;;;;0.70;0.63;;;;;;;;;;6066309;23;20179;-81
2022/07/04 08:17:18;;;;;;;0.60;0.60;;;;;;;;;;6066990;23;20246;-84
2022/07/04 08:19:52;;;;;;;0.90;0.90;;;;;;;;;;6110147;23;20301;-84
2022/07/04 08:22:22;;;;;;;0.90;0.90;;;;;;;;;;6189848;23;20204;-83
2022/07/04 08:24:51;;;;;;;5.33;1.33;;;;;;;;;;6187422;23;20183;-84
2022/07/04 08:27:22;;;;;;;10.93;1.40;;;;;;;;;;6191294;23;20208;-84
2022/07/04 08:30:00;;;;;;;1.40;1.00;;;;;;;;;;6190410;23;20194;-86
2022/07/04 08:32:30;;;;;;;0.40;0.40;;;;;;;;;;6192166;23;20174;-85
2022/07/04 08:35:01;;;;;;;0.40;0.40;;;;;;;;;;6185969;23;20242;-86
2022/07/04 08:37:29;;;;;;;0.63;0.63;;;;;;;;;;6188656;23;20283;-85
2022/07/04 08:40:02;;;;;;;0.40;0.40;;;;;;;;;;6188002;23;20172;-86
2022/07/04 08:42:37;;;;;;;1.17;1.07;;;;;;;;;;6185891;23;20177;-87
2022/07/04 08:45:06;;;;;;;0.90;0.73;;;;;;;;;;6210106;23;20184;-86
2022/07/04 08:47:35;;;;;;;1.07;1.07;;;;;;;;;;6213148;23;20188;-87
2022/07/04 08:50:11;;;;;;;0.77;0.73;;;;;;;;;;6185964;23;20194;-86
2022/07/04 08:52:41;;;;;;;0.50;0.50;;;;;;;;;;6186394;23;20178;-87
2022/07/04 09:00:45;;;;;;;0.63;0.63;;;;;;;;;;6187891;23;20170;-86
2022/07/04 09:03:14;;;;;;;5.40;1.37;;;;;;;;;;6184852;23;20202;-86
2022/07/04 09:05:44;;;;;;;1.70;0.70;;;;;;;;;;6188441;23;20186;-86
2022/07/04 09:08:13;;;;;;;1.73;1.20;;;;;;;;;;6212157;23;20180;-85
2022/07/04 09:10:41;;;;;;;0.63;0.63;;;;;;;;;;6184472;23;20266;-85
2022/07/04 09:13:11;;;;;;;1.13;1.13;;;;;;;;;;6181487;23;20185;-82
2022/07/04 09:15:42;;;;;;;2.37;1.63;;;;;;;;;;6184889;23;20181;-83
2022/07/04 09:18:21;;;;;;;2.10;1.10;;;;;;;;;;6186315;23;20185;-82
2022/07/04 09:20:52;;;;;;;1.20;0.83;;;;;;;;;;6090707;23;20239;-81
2022/07/04 09:23:25;;;;;;;3.90;0.97;;;;;;;;;;6060946;23;20242;-82
2022/07/04 09:26:11;;;;;;;0.70;0.70;;;;;;;;;;6060654;23;20185;-83
2022/07/04 09:28:40;;;;;;;0.70;0.70;;;;;;;;;;6057483;23;20183;-83
2022/07/04 09:31:18;;;;;;;0.90;0.90;;;;;;;;;;6056681;23;20192;-85
2022/07/04 09:33:52;;;;;;;0.77;0.70;;;;;;;;;;6058356;23;20189;-87
2022/07/04 09:36:24;;;;;;;0.70;0.47;;;;;;;;;;6058960;23;20185;-86
2022/07/04 09:39:06;;;;;;;0.50;0.50;;;;;;;;;;6059636;23;20247;-84
2022/07/04 09:41:50;;;;;;;0.53;0.53;;;;;;;;;;6058937;23;20177;-88
2022/07/04 09:44:19;;;;;;;1.07;1.07;;;;;;;;;;6058721;23;20209;-83
2022/07/04 09:46:48;;;;;;;0.83;0.83;;;;;;;;;;6055455;23;20181;-82
2022/07/04 09:49:17;;;;;;;0.50;0.50;;;;;;;;;;6059077;23;20227;-81
2022/07/04 09:51:48;;;;;;;0.93;0.80;;;;;;;;;;6057698;23;20209;-83
2022/07/04 09:54:17;;;;;;;0.80;0.80;;;;;;;;;;6057679;23;20255;-82
2022/07/04 09:56:50;;;;;;;0.57;0.57;;;;;;;;;;6057463;23;20252;-83
2022/07/04 09:59:21;;;;;;;0.60;0.60;;;;;;;;;;6059254;23;20188;-82
2022/07/04 10:01:49;;;;;;;0.60;0.60;;;;;;;;;;6058353;23;20204;-83
2022/07/04 10:04:23;;;;;;;0.50;0.50;;;;;;;;;;6062642;23;20182;-80
2022/07/04 10:06:53;;;;;;;0.30;0.30;;;;;;;;;;6063307;23;20170;-82
2022/07/04 10:09:23;;;;;;;0.40;0.40;;;;;;;;;;6062098;23;20196;-82
2022/07/04 10:11:51;;;;;;;0.30;0.30;;;;;;;;;;6056234;23;20202;-83
2022/07/04 10:14:20;;;;;;;0.83;0.77;;;;;;;;;;6058729;23;20178;-83
2022/07/04 10:16:48;;;;;;;3.33;1.30;;;;;;;;;;6058001;23;20182;-82
2022/07/04 10:19:18;;;;;;;1.33;0.93;;;;;;;;;;6075336;23;20201;-83
2022/07/04 10:21:47;;;;;;;0.70;0.70;;;;;;;;;;6214732;23;20170;-81
2022/07/04 10:24:18;;;;;;;0.83;0.70;;;;;;;;;;6186927;23;20179;-81
2022/07/04 10:26:46;;;;;;;0.77;0.70;;;;;;;;;;6185621;23;20179;-83
2022/07/04 10:29:17;;;;;;;1.90;0.90;;;;;;;;;;6187466;23;20176;-81
2022/07/04 10:31:45;;;;;;;0.97;0.83;;;;;;;;;;6187493;23;20202;-81
2022/07/04 10:34:14;;;;;;;0.47;0.47;;;;;;;;;;6185768;23;20185;-81
2022/07/04 10:36:52;;;;;;;0.53;0.53;;;;;;;;;;6187569;23;20179;-81
2022/07/04 10:39:29;;;;;;;4.33;0.60;;;;;;;;;;6186091;23;20220;-82
2022/07/04 10:41:59;;;;;;;0.57;0.57;;;;;;;;;;6212170;23;20173;-81
2022/07/04 10:44:35;;;;;;;1.23;1.07;;;;;;;;;;6212195;23;20184;-81
2022/07/04 10:47:03;;;;;;;0.57;0.57;;;;;;;;;;6183795;23;20181;-81
2022/07/04 10:49:35;;;;;;;1.87;0.73;;;;;;;;;;6186735;23;20186;-82
2022/07/04 10:52:10;;;;;;;0.80;0.67;;;;;;;;;;6212747;23;20188;-82
2022/07/04 10:54:41;;;;;;;1.00;1.00;;;;;;;;;;6187845;23;20245;-82
2022/07/04 10:57:16;;;;;;;1.87;0.87;;;;;;;;;;6187609;23;20181;-81
2022/07/04 11:00:03;;;;;;;0.83;0.73;;;;;;;;;;6213671;23;20179;-82
2022/07/04 11:02:32;;;;;;;1.57;1.07;;;;;;;;;;6212452;23;20168;-81
2022/07/04 11:05:02;;;;;;;9.43;1.53;;;;;;;;;;6184508;23;20181;-80
2022/07/04 11:07:49;;;;;;;0.80;0.80;;;;;;;;;;6209946;23;20170;-80
2022/07/04 11:10:23;;;;;;;2.90;1.60;;;;;;;;;;6211556;23;20180;-81
2022/07/04 11:13:07;;;;;;;0.97;0.87;;;;;;;;;;6185620;23;20626;-80
2022/07/04 11:15:54;;;;;;;0.53;0.53;;;;;;;;;;6183645;23;20217;-79
2022/07/04 11:18:23;;;;;;;0.50;0.50;;;;;;;;;;6184719;23;20172;-79
2022/07/04 11:20:51;;;;;;;0.60;0.60;;;;;;;;;;6089769;23;20217;-79
2022/07/04 11:23:21;;;;;;;0.40;0.40;;;;;;;;;;6057052;23;20267;-79
2022/07/04 11:25:53;;;;;;;1.50;0.97;;;;;;;;;;6056758;23;20189;-79
2022/07/04 11:28:22;;;;;;;1.07;0.97;;;;;;;;;;6056948;23;20188;-80
2022/07/04 11:31:11;;;;;;;1.40;1.30;;;;;;;;;;6060335;23;20217;-79
2022/07/04 11:33:41;;;;;;;0.40;0.40;;;;;;;;;;6056709;23;20185;-79
2022/07/04 11:36:11;;;;;;;0.63;0.63;;;;;;;;;;6060427;23;20173;-79
2022/07/04 11:38:45;;;;;;;0.60;0.60;;;;;;;;;;6055778;23;20184;-80
2022/07/04 11:46:50;;;;;;;9.73;0.83;;;;;;;;;;6057750;23;20212;-79
2022/07/04 11:49:20;;;;;;;0.70;0.70;;;;;;;;;;6055113;23;20238;-79
2022/07/04 11:51:49;;;;;;;0.50;0.50;;;;;;;;;;6055494;23;20289;-80
2022/07/04 11:54:18;;;;;;;0.57;0.57;;;;;;;;;;6059597;23;20175;-79
2022/07/04 11:57:12;;;;;;;2.00;1.23;;;;;;;;;;6059031;23;20184;-79
2022/07/04 11:59:41;;;;;;;3.70;1.63;;;;;;;;;;6056935;23;20189;-82
2022/07/04 12:02:16;;;;;;;0.60;0.60;;;;;;;;;;6058942;23;20202;-82
2022/07/04 12:04:45;;;;;;;0.70;0.70;;;;;;;;;;6058011;23;20188;-79
2022/07/04 12:07:15;;;;;;;0.70;0.70;;;;;;;;;;6061763;23;20180;-81
2022/07/04 12:09:44;;;;;;;0.43;0.43;;;;;;;;;;6062397;23;20188;-83
2022/07/04 12:12:17;;;;;;;0.60;0.60;;;;;;;;;;6059196;23;20203;-83
2022/07/04 12:15:02;;;;;;;0.70;0.70;;;;;;;;;;6061589;23;20231;-81
2022/07/04 12:17:33;;;;;;;1.27;0.60;;;;;;;;;;6061152;23;20179;-82
2022/07/04 12:20:13;;;;;;;1.20;0.73;;;;;;;;;;6061429;23;20219;-83
2022/07/04 12:22:42;;;;;;;0.70;0.70;;;;;;;;;;6061934;23;20191;-82
2022/07/04 12:25:22;;;;;;;0.40;0.40;;;;;;;;;;6063070;23;20189;-83
2022/07/04 12:27:58;;;;;;;0.40;0.40;;;;;;;;;;6063705;23;20188;-84
2022/07/04 12:30:31;;;;;;;1.47;0.70;;;;;;;;;;6063064;23;20208;-82
2022/07/04 12:33:06;;;;;;;0.40;0.40;;;;;;;;;;6059391;23;20225;-83
2022/07/04 12:35:44;;;;;;;0.60;0.60;;;;;;;;;;6061283;23;20184;-83
2022/07/04 12:38:13;;;;;;;0.60;0.60;;;;;;;;;;6061970;23;20190;-83
2022/07/04 12:40:55;;;;;;;0.53;0.53;;;;;;;;;;6062147;23;20194;-82
2022/07/04 12:43:26;;;;;;;0.60;0.60;;;;;;;;;;6062162;23;20233;-82
2022/07/04 12:45:56;;;;;;;0.80;0.80;;;;;;;;;;6064440;23;20176;-81
2022/07/04 12:48:26;;;;;;;0.80;0.80;;;;;;;;;;6062195;23;20181;-81
2022/07/04 12:50:55;;;;;;;0.60;0.60;;;;;;;;;;6056386;23;20212;-81
2022/07/04 12:53:23;;;;;;;0.53;0.53;;;;;;;;;;6060741;23;20215;-82
2022/07/04 12:55:54;;;;;;;0.60;0.60;;;;;;;;;;6059288;23;20189;-82
2022/07/04 12:58:23;;;;;;;0.60;0.60;;;;;;;;;;6058035;23;20194;-82
2022/07/04 13:00:53;;;;;;;0.70;0.70;;;;;;;;;;6062061;23;20194;-82
2022/07/04 13:03:21;;;;;;;0.60;0.60;;;;;;;;;;6061167;23;20271;-82
2022/07/04 13:05:51;;;;;;;0.50;0.50;;;;;;;;;;6062061;23;20180;-84
2022/07/04 13:08:19;;;;;;;0.70;0.70;;;;;;;;;;6059208;23;20181;-81
2022/07/04 13:10:48;;;;;;;0.50;0.50;;;;;;;;;;6059240;23;20182;-82
2022/07/04 13:13:16;;;;;;;1.80;0.90;;;;;;;;;;6060368;23;20228;-81
2022/07/04 13:15:45;;;;;;;0.80;0.80;;;;;;;;;;6062315;23;20185;-81
2022/07/04 13:18:17;;;;;;;0.50;0.50;;;;;;;;;;6062469;23;20216;-80
2022/07/04 13:20:45;;;;;;;0.73;0.70;;;;;;;;;;6061707;23;20218;-80
2022/07/04 13:23:14;;;;;;;1.27;1.27;;;;;;;;;;6060160;23;20180;-80
2022/07/04 13:25:47;;;;;;;0.87;0.87;;;;;;;;;;6060979;23;20186;-79
2022/07/04 13:28:16;;;;;;;0.60;0.60;;;;;;;;;;6061237;23;20176;-80
2022/07/04 13:30:45;;;;;;;0.70;0.70;;;;;;;;;;6058078;23;20185;-81
2022/07/04 13:33:15;;;;;;;0.80;0.70;;;;;;;;;;6054859;23;20225;-81
2022/07/04 13:35:44;;;;;;;0.40;0.40;;;;;;;;;;6058446;23;20185;-81
2022/07/04 13:38:14;;;;;;;0.53;0.53;;;;;;;;;;6059946;23;20181;-84
2022/07/04 13:40:44;;;;;;;0.67;0.63;;;;;;;;;;6058378;23;20427;-80
2022/07/04 13:43:16;;;;;;;1.23;0.90;;;;;;;;;;6058884;23;20296;-80
2022/07/04 13:45:48;;;;;;;1.10;0.83;;;;;;;;;;6058036;23;20289;-79
2022/07/04 13:48:18;;;;;;;0.50;0.50;;;;;;;;;;6057712;23;20185;-82
2022/07/04 13:50:47;;;;;;;1.10;0.90;;;;;;;;;;6058984;23;20177;-80
2022/07/04 13:53:15;;;;;;;0.63;0.50;;;;;;;;;;6059655;23;20209;-82
2022/07/04 13:55:44;;;;;;;0.80;0.80;;;;;;;;;;6059654;23;20267;-80
2022/07/04 13:58:16;;;;;;;2.23;1.10;;;;;;;;;;6057380;23;20219;-81
2022/07/04 14:00:46;;;;;;;0.67;0.67;;;;;;;;;;6079907;23;20213;-81
2022/07/04 14:03:14;;;;;;;0.47;0.47;;;;;;;;;;6058912;23;20173;-81
2022/07/04 14:05:44;;;;;;;0.53;0.53;;;;;;;;;;6059779;23;20235;-82
2022/07/04 14:08:13;;;;;;;0.63;0.60;;;;;;;;;;6058090;23;20184;-82
2022/07/04 14:10:42;;;;;;;0.77;0.77;;;;;;;;;;6057283;23;20189;-82
2022/07/04 14:13:11;;;;;;;2.10;0.90;;;;;;;;;;6060466;23;20197;-81
2022/07/04 14:15:39;;;;;;;5.37;1.23;;;;;;;;;;6058074;23;20195;-81
2022/07/04 14:18:13;;;;;;;0.67;0.67;;;;;;;;;;6056824;23;20208;-81
2022/07/04 14:20:42;;;;;;;0.60;0.60;;;;;;;;;;6162706;23;20198;-81
2022/07/04 14:23:12;;;;;;;1.23;0.70;;;;;;;;;;6184404;23;20179;-81
2022/07/04 14:25:40;;;;;;;0.90;0.90;;;;;;;;;;6187812;23;20185;-81
2022/07/04 14:28:09;;;;;;;1.47;0.90;;;;;;;;;;6186274;23;20184;-80
2022/07/04 14:30:39;;;;;;;0.70;0.70;;;;;;;;;;6186432;23;20178;-84
2022/07/04 14:33:08;;;;;;;0.77;0.77;;;;;;;;;;6213116;23;20217;-82
2022/07/04 14:35:36;;;;;;;4.27;1.23;;;;;;;;;;6187064;23;20178;-81
2022/07/04 14:38:05;;;;;;;0.77;0.77;;;;;;;;;;6183744;23;20184;-82
2022/07/04 14:40:35;;;;;;;0.90;0.90;;;;;;;;;;6183589;23;20231;-82
2022/07/04 14:43:04;;;;;;;0.43;0.43;;;;;;;;;;6210110;23;20170;-82
2022/07/04 14:45:32;;;;;;;1.13;0.97;;;;;;;;;;6208993;23;20223;-81
2022/07/04 14:48:01;;;;;;;1.00;0.70;;;;;;;;;;6184559;23;20188;-80
2022/07/04 14:50:30;;;;;;;0.73;0.73;;;;;;;;;;6184191;23;20182;-80
2022/07/04 14:52:58;;;;;;;3.30;1.00;;;;;;;;;;6185698;23;20281;-81
2022/07/04 14:55:30;;;;;;;0.97;0.60;;;;;;;;;;6185803;23;20184;-80
2022/07/04 14:58:00;;;;;;;3.80;0.87;;;;;;;;;;6184398;23;20184;-80
2022/07/04 15:00:29;;;;;;;2.43;1.03;;;;;;;;;;6210132;23;20207;-81
2022/07/04 15:02:57;;;;;;;0.67;0.67;;;;;;;;;;6182108;23;20223;-82
2022/07/04 15:05:26;;;;;;;0.70;0.70;;;;;;;;;;6182611;23;20187;-81
2022/07/04 15:07:56;;;;;;;2.47;0.90;;;;;;;;;;6184879;23;20206;-81
2022/07/04 15:10:28;;;;;;;0.73;0.73;;;;;;;;;;6185116;23;20187;-82
2022/07/04 15:13:18;;;;;;;1.80;1.30;;;;;;;;;;6185326;23;20192;-78
2022/07/04 15:15:46;;;;;;;0.43;0.43;;;;;;;;;;6184679;23;20245;-80
2022/07/04 15:18:35;;;;;;;2.43;1.00;;;;;;;;;;6183543;23;20199;-79
2022/07/04 15:26:35;;;;;;;0.90;0.90;;;;;;;;;;6060047;23;20177;-78
2022/07/04 15:29:05;;;;;;;1.10;0.83;;;;;;;;;;6059642;23;20241;-79